createdAt,value
2022-12-22T00:00:21.118Z,30.27
2022-12-22T00:03:07.598Z,32.33
2022-12-22T00:05:53.786Z,32.77
2022-12-22T00:08:42.862Z,32.33
2022-12-22T00:11:32.101Z,32.17
2022-12-22T00:14:18.431Z,32.67
2022-12-22T00:17:04.816Z,33.30
2022-12-22T00:19:50.910Z,32.07
2022-12-22T00:22:42.664Z,34.07
2022-12-22T00:25:32.462Z,32.80
2022-12-22T00:28:20.998Z,33.07
2022-12-22T00:31:06.951Z,34.13
2022-12-22T00:33:55.333Z,31.97
2022-12-22T00:36:44.045Z,32.97
2022-12-22T00:39:32.465Z,32.47
2022-12-22T00:42:18.485Z,31.77
2022-12-22T00:45:10.616Z,32.80
2022-12-22T00:47:59.845Z,34.10
2022-12-22T00:50:51.959Z,31.27
2022-12-22T00:53:38.666Z,29.97
2022-12-22T00:56:26.801Z,32.90
2022-12-22T01:02:22.838Z,31.47
2022-12-22T01:05:10.287Z,33.93
2022-12-22T01:07:56.410Z,32.43
2022-12-22T01:10:45.084Z,34.03
2022-12-22T01:13:31.812Z,33.67
2022-12-22T01:16:17.819Z,33.37
2022-12-22T01:21:55.882Z,32.80
2022-12-22T01:24:41.925Z,34.83
2022-12-22T01:27:28.608Z,33.57
2022-12-22T01:30:14.015Z,33.33
2022-12-22T01:32:59.584Z,36.43
2022-12-22T01:35:47.396Z,34.03
2022-12-22T01:38:34.804Z,35.90
2022-12-22T01:41:22.159Z,33.40
2022-12-22T01:44:08.175Z,33.77
2022-12-22T01:46:55.830Z,33.50
2022-12-22T01:49:46.010Z,33.97
2022-12-22T01:52:34.503Z,33.17
2022-12-22T01:55:27.043Z,33.13
2022-12-22T01:58:13.458Z,32.30
2022-12-22T02:01:00.820Z,31.57
2022-12-22T02:03:46.542Z,33.23
2022-12-22T02:06:40.563Z,31.40
2022-12-22T02:09:38.059Z,31.60
2022-12-22T02:12:30.217Z,31.73
2022-12-22T02:15:22.163Z,34.50
2022-12-22T02:18:15.996Z,31.07
2022-12-22T02:21:07.931Z,31.80
2022-12-22T02:24:22.933Z,33.03
2022-12-22T02:27:13.144Z,30.93
2022-12-22T02:30:02.377Z,30.17
2022-12-22T02:32:52.869Z,29.20
2022-12-22T02:35:38.820Z,30.80
2022-12-22T02:38:35.343Z,28.37
2022-12-22T02:41:33.004Z,30.80
2022-12-22T02:44:37.726Z,29.70
2022-12-22T02:47:37.340Z,28.40
2022-12-22T02:50:29.665Z,32.40
2022-12-22T02:53:16.932Z,30.67
2022-12-22T02:56:02.410Z,30.93
2022-12-22T02:58:51.913Z,27.87
2022-12-22T03:01:38.838Z,29.00
2022-12-22T03:04:24.308Z,30.83
2022-12-22T03:07:09.928Z,29.73
2022-12-22T03:09:55.489Z,26.87
2022-12-22T03:12:51.057Z,28.73
2022-12-22T03:15:36.925Z,28.87
2022-12-22T03:18:25.771Z,28.63
2022-12-22T03:21:12.195Z,29.47
2022-12-22T03:23:58.570Z,28.57
2022-12-22T03:26:27.355Z,33.20
2022-12-22T03:28:56.110Z,27.97
2022-12-22T03:31:24.392Z,26.57
2022-12-22T03:33:54.071Z,28.17
2022-12-22T03:36:22.303Z,26.93
2022-12-22T03:38:50.499Z,26.33
2022-12-22T03:41:32.591Z,26.00
2022-12-22T03:44:18.130Z,25.87
2022-12-22T03:46:46.467Z,24.97
2022-12-22T03:49:16.227Z,26.90
2022-12-22T03:51:45.764Z,25.70
2022-12-22T03:54:15.603Z,25.37
2022-12-22T03:56:43.889Z,26.07
2022-12-22T03:59:12.932Z,26.13
2022-12-22T04:01:43.624Z,22.60
2022-12-22T04:04:13.106Z,26.30
2022-12-22T04:06:43.872Z,25.40
2022-12-22T04:09:12.149Z,25.17
2022-12-22T04:11:57.868Z,22.63
2022-12-22T04:14:33.099Z,22.60
2022-12-22T04:17:02.348Z,23.57
2022-12-22T04:19:30.771Z,24.73
2022-12-22T04:22:00.843Z,24.93
2022-12-22T04:24:29.373Z,24.17
2022-12-22T04:27:11.183Z,24.73
2022-12-22T04:29:39.369Z,25.93
2022-12-22T04:32:07.664Z,24.50
2022-12-22T04:34:35.930Z,25.87
2022-12-22T04:37:12.954Z,26.60
2022-12-22T04:39:45.222Z,26.30
2022-12-22T04:42:14.863Z,26.63
2022-12-22T04:44:43.082Z,26.67
2022-12-22T04:47:11.280Z,26.10
2022-12-22T04:49:39.526Z,27.43
2022-12-22T04:52:07.955Z,27.73
2022-12-22T04:54:36.190Z,27.97
2022-12-22T04:57:04.373Z,28.53
2022-12-22T04:59:34.027Z,27.13
2022-12-22T05:02:02.304Z,27.83
2022-12-22T05:04:30.550Z,28.57
2022-12-22T05:06:58.817Z,29.23
2022-12-22T05:09:26.983Z,29.63
2022-12-22T05:11:55.326Z,29.20
2022-12-22T05:14:23.527Z,30.07
2022-12-22T05:16:53.211Z,29.07
2022-12-22T05:19:24.868Z,28.27
2022-12-22T05:21:55.592Z,29.83
2022-12-22T05:24:23.826Z,30.20
2022-12-22T05:26:52.401Z,30.43
2022-12-22T05:29:20.650Z,27.97
2022-12-22T05:31:48.842Z,28.43
2022-12-22T05:34:18.417Z,28.73
2022-12-22T05:36:46.608Z,30.50
2022-12-22T05:39:14.832Z,29.70
2022-12-22T05:41:42.977Z,29.07
2022-12-22T05:44:11.165Z,27.20
2022-12-22T05:46:39.450Z,28.63
2022-12-22T05:49:07.792Z,28.00
2022-12-22T05:51:37.357Z,28.83
2022-12-22T05:54:05.588Z,29.07
2022-12-22T05:56:33.771Z,28.33
2022-12-22T05:59:01.968Z,29.53
2022-12-22T06:01:30.221Z,27.20
2022-12-22T06:04:00.644Z,27.50
2022-12-22T06:06:29.224Z,28.87
2022-12-22T06:08:58.792Z,27.53
2022-12-22T06:11:27.002Z,28.60
2022-12-22T06:13:55.217Z,27.70
2022-12-22T06:16:24.523Z,26.83
2022-12-22T06:18:52.786Z,28.83
2022-12-22T06:21:21.042Z,30.30
2022-12-22T06:23:49.288Z,29.50
2022-12-22T06:26:18.819Z,29.67
2022-12-22T06:28:47.025Z,27.53
2022-12-22T06:31:15.283Z,28.30
2022-12-22T06:33:43.605Z,29.20
2022-12-22T06:36:12.389Z,28.40
2022-12-22T06:38:40.577Z,30.70
2022-12-22T06:41:08.771Z,26.43
2022-12-22T06:43:37.437Z,28.57
2022-12-22T06:46:05.918Z,30.03
2022-12-22T06:48:34.124Z,30.13
2022-12-22T06:51:02.411Z,28.17
2022-12-22T06:53:30.645Z,29.37
2022-12-22T06:55:58.830Z,29.63
2022-12-22T06:58:27.105Z,29.30
2022-12-22T07:00:58.633Z,28.43
2022-12-22T07:03:26.954Z,29.47
2022-12-22T07:05:55.268Z,30.43
2022-12-22T07:08:23.695Z,28.60
2022-12-22T07:11:00.578Z,30.40
2022-12-22T07:13:31.931Z,30.43
2022-12-22T07:16:02.482Z,30.90
2022-12-22T07:18:32.795Z,27.77
2022-12-22T07:21:01.515Z,29.87
2022-12-22T07:23:30.681Z,26.83
2022-12-22T07:25:59.673Z,27.57
2022-12-22T07:28:28.213Z,30.20
2022-12-22T07:30:57.099Z,29.43
2022-12-22T07:33:26.942Z,28.63
2022-12-22T07:36:07.138Z,29.43
2022-12-22T07:38:37.729Z,28.83
2022-12-22T07:41:28.041Z,30.17
2022-12-22T07:43:56.839Z,27.93
2022-12-22T07:46:26.649Z,28.27
2022-12-22T07:49:14.181Z,27.10
2022-12-22T07:51:45.912Z,27.43
2022-12-22T07:54:16.426Z,26.27
2022-12-22T07:56:45.359Z,29.37
2022-12-22T07:59:14.037Z,27.87
2022-12-22T08:01:43.267Z,27.63
2022-12-22T08:04:13.175Z,28.67
2022-12-22T08:06:41.757Z,26.97
2022-12-22T08:09:11.211Z,27.67
2022-12-22T08:11:39.416Z,29.33
2022-12-22T08:14:07.760Z,28.47
2022-12-22T08:16:36.124Z,27.33
2022-12-22T08:19:04.502Z,28.83
2022-12-22T08:21:34.181Z,29.43
2022-12-22T08:24:02.432Z,30.33
2022-12-22T08:26:36.133Z,29.03
2022-12-22T08:29:08.570Z,30.33
2022-12-22T08:31:37.118Z,30.90
2022-12-22T08:34:08.571Z,27.80
2022-12-22T08:36:41.374Z,28.77
2022-12-22T08:39:10.052Z,28.50
2022-12-22T08:41:53.652Z,28.03
2022-12-22T08:44:24.515Z,26.87
2022-12-22T08:46:53.815Z,29.20
2022-12-22T08:49:22.189Z,27.20
2022-12-22T08:51:52.424Z,27.20
2022-12-22T08:54:20.932Z,26.83
2022-12-22T08:56:49.622Z,26.88
2022-12-22T08:59:18.527Z,24.20
2022-12-22T09:01:50.688Z,25.45
2022-12-22T09:04:21.611Z,26.27
2022-12-22T09:06:52.662Z,26.27
2022-12-22T09:09:21.743Z,26.37
2022-12-22T09:11:50.319Z,25.70
2022-12-22T09:14:19.040Z,25.87
2022-12-22T09:16:47.531Z,27.43
2022-12-22T09:19:15.807Z,26.83
2022-12-22T09:21:45.066Z,26.73
2022-12-22T09:24:16.275Z,27.93
2022-12-22T09:26:44.635Z,27.42
2022-12-22T09:29:15.391Z,27.93
2022-12-22T09:31:44.473Z,27.00
2022-12-22T09:34:17.495Z,27.17
2022-12-22T09:36:46.810Z,25.83
2022-12-22T09:39:17.090Z,26.20
2022-12-22T09:41:48.622Z,25.35
2022-12-22T09:44:26.657Z,24.00
2022-12-22T09:47:00.202Z,24.27
2022-12-22T09:49:29.066Z,24.67
2022-12-22T09:51:59.934Z,25.60
2022-12-22T09:54:30.905Z,24.55
2022-12-22T09:56:59.520Z,26.07
2022-12-22T09:59:29.148Z,26.60
2022-12-22T10:02:21.978Z,25.67
2022-12-22T10:05:04.512Z,27.20
2022-12-22T10:07:34.933Z,28.02
2022-12-22T10:10:09.205Z,27.40
2022-12-22T10:12:37.631Z,27.47
2022-12-22T10:15:14.145Z,26.58
2022-12-22T10:17:45.306Z,25.47
2022-12-22T10:20:26.489Z,25.17
2022-12-22T10:22:56.896Z,24.90
2022-12-22T10:25:51.880Z,23.65
2022-12-22T10:28:24.402Z,25.67
2022-12-22T10:31:15.994Z,24.23
2022-12-22T10:33:47.698Z,24.70
2022-12-22T10:36:20.679Z,23.42
2022-12-22T10:39:02.544Z,23.10
2022-12-22T10:41:36.568Z,21.85
2022-12-22T10:44:09.678Z,22.83
2022-12-22T10:46:41.942Z,22.67
2022-12-22T10:49:22.669Z,24.73
2022-12-22T10:51:55.310Z,23.08
2022-12-22T10:54:32.632Z,22.75
2022-12-22T10:57:21.604Z,23.33
2022-12-22T10:59:51.546Z,22.42
2022-12-22T11:02:33.688Z,23.92
2022-12-22T11:05:08.037Z,22.45
2022-12-22T11:07:38.094Z,23.60
2022-12-22T11:10:19.036Z,22.98
2022-12-22T11:13:20.307Z,23.63
2022-12-22T11:15:55.803Z,23.52
2022-12-22T11:18:42.231Z,23.15
2022-12-22T11:21:20.350Z,23.00
2022-12-22T11:24:00.114Z,23.30
2022-12-22T11:26:34.623Z,24.05
2022-12-22T11:29:20.947Z,23.92
2022-12-22T11:31:59.867Z,23.15
2022-12-22T11:34:51.490Z,24.30
2022-12-22T11:37:30.008Z,23.83
2022-12-22T11:40:04.515Z,25.45
2022-12-22T11:42:51.593Z,22.63
2022-12-22T11:45:43.552Z,24.75
2022-12-22T11:48:36.121Z,23.30
2022-12-22T11:51:14.683Z,25.30
2022-12-22T11:54:21.287Z,24.73
2022-12-22T11:56:58.108Z,24.90
2022-12-22T11:59:45.645Z,23.92
2022-12-22T12:02:52.598Z,23.05
2022-12-22T12:05:37.646Z,23.83
2022-12-22T12:08:16.560Z,24.10
2022-12-22T12:10:49.123Z,22.40
2022-12-22T12:13:30.075Z,23.05
2022-12-22T12:16:10.084Z,24.63
2022-12-22T12:18:57.864Z,23.92
2022-12-22T12:21:30.531Z,22.92
2022-12-22T12:24:22.934Z,23.73
2022-12-22T12:27:01.863Z,24.00
2022-12-22T12:29:36.676Z,24.00
2022-12-22T12:32:08.382Z,24.65
2022-12-22T12:34:42.799Z,25.08
2022-12-22T12:37:25.884Z,25.17
2022-12-22T12:40:06.328Z,25.23
2022-12-22T12:42:39.032Z,25.30
2022-12-22T12:45:34.829Z,24.80
2022-12-22T12:48:39.359Z,25.58
2022-12-22T12:51:42.150Z,24.70
2022-12-22T12:54:43.398Z,25.17
2022-12-22T12:57:23.870Z,24.58
2022-12-22T12:59:53.689Z,24.55
2022-12-22T13:02:41.995Z,24.67
2022-12-22T13:05:29.878Z,25.38
2022-12-22T13:08:20.080Z,22.75
2022-12-22T13:11:44.674Z,23.20
2022-12-22T13:14:08.595Z,23.25
2022-12-22T13:16:39.480Z,23.85
2022-12-22T13:19:24.688Z,22.90
2022-12-22T13:21:58.019Z,22.95
2022-12-22T13:24:32.140Z,21.75
2022-12-22T13:27:08.661Z,20.90
2022-12-22T13:29:43.997Z,19.38
2022-12-22T13:32:28.539Z,19.05
2022-12-22T13:35:32.537Z,16.98
2022-12-22T13:38:01.459Z,18.30
2022-12-22T13:40:32.132Z,17.08
2022-12-22T13:43:06.800Z,18.10
2022-12-22T13:45:39.330Z,17.27
2022-12-22T13:48:13.610Z,16.58
2022-12-22T13:50:46.354Z,17.75
2022-12-22T13:53:49.930Z,16.30
2022-12-22T13:56:15.153Z,18.02
2022-12-22T13:58:46.698Z,17.15
2022-12-22T14:01:20.965Z,18.23
2022-12-22T14:04:01.417Z,19.05
2022-12-22T14:06:33.060Z,17.30
2022-12-22T14:09:20.211Z,17.85
2022-12-22T14:11:57.585Z,19.02
2022-12-22T14:14:29.803Z,17.10
2022-12-22T14:17:00.537Z,19.17
2022-12-22T14:19:33.642Z,20.17
2022-12-22T14:22:09.891Z,19.33
2022-12-22T14:24:44.445Z,20.25
2022-12-22T14:27:20.589Z,19.25
2022-12-22T14:29:50.924Z,21.35
2022-12-22T14:32:36.828Z,22.27
2022-12-22T14:35:05.888Z,22.00
2022-12-22T14:37:34.214Z,21.20
2022-12-22T14:40:02.729Z,19.88
2022-12-22T14:42:32.571Z,19.98
2022-12-22T14:45:02.424Z,20.02
2022-12-22T14:47:31.091Z,20.50
2022-12-22T14:50:05.400Z,19.80
2022-12-22T14:52:38.963Z,20.33
2022-12-22T14:55:22.131Z,19.90
2022-12-22T14:57:54.847Z,19.75
2022-12-22T15:00:34.325Z,19.50
2022-12-22T15:03:05.425Z,20.67
2022-12-22T15:05:37.570Z,20.98
2022-12-22T15:08:09.316Z,21.17
2022-12-22T15:10:43.747Z,19.52
2022-12-22T15:13:22.772Z,19.27
2022-12-22T15:15:52.813Z,20.08
2022-12-22T15:18:26.683Z,20.85
2022-12-22T15:20:55.212Z,19.83
2022-12-22T15:23:24.191Z,20.08
2022-12-22T15:25:52.832Z,20.85
2022-12-22T15:28:21.088Z,21.67
2022-12-22T15:30:49.474Z,22.00
2022-12-22T15:33:20.639Z,22.95
2022-12-22T15:35:49.136Z,23.73
2022-12-22T15:38:18.931Z,23.15
2022-12-22T15:40:47.358Z,24.33
2022-12-22T15:43:55.981Z,25.00
2022-12-22T15:46:06.599Z,25.00
2022-12-22T15:48:39.580Z,24.35
2022-12-22T15:51:12.749Z,26.43
2022-12-22T15:53:41.906Z,26.33
2022-12-22T15:56:17.908Z,28.53
2022-12-22T15:58:46.507Z,28.60
2022-12-22T16:01:15.251Z,31.20
2022-12-22T16:03:45.053Z,28.60
2022-12-22T16:06:14.961Z,28.27
2022-12-22T16:08:47.165Z,28.93
2022-12-22T16:11:15.560Z,30.53
2022-12-22T16:13:44.028Z,32.13
2022-12-22T16:16:12.970Z,45.43
2022-12-22T16:18:41.288Z,35.87
2022-12-22T16:21:18.086Z,34.83
2022-12-22T16:23:49.108Z,32.30
2022-12-22T16:26:19.407Z,31.30
2022-12-22T16:28:48.124Z,31.07
2022-12-22T16:31:20.680Z,30.30
2022-12-22T16:33:49.460Z,28.97
2022-12-22T16:36:19.461Z,28.23
2022-12-22T16:38:48.763Z,28.73
2022-12-22T16:41:23.876Z,29.92
2022-12-22T16:43:53.469Z,29.03
2022-12-22T16:46:23.856Z,28.47
2022-12-22T16:48:54.497Z,27.60
2022-12-22T16:51:26.863Z,29.33
2022-12-22T16:53:55.400Z,29.77
2022-12-22T16:56:26.968Z,31.55
2022-12-22T16:58:55.543Z,28.15
2022-12-22T17:01:33.498Z,29.13
2022-12-22T17:04:05.440Z,28.20
2022-12-22T17:06:36.165Z,29.10
2022-12-22T17:09:05.685Z,29.40
2022-12-22T17:11:34.618Z,31.23
2022-12-22T17:14:09.295Z,30.13
2022-12-22T17:16:37.825Z,39.70
2022-12-22T17:19:07.531Z,36.70
2022-12-22T17:21:37.211Z,31.90
2022-12-22T17:24:06.040Z,30.33
2022-12-22T17:26:37.877Z,30.00
2022-12-22T17:29:06.577Z,29.60
2022-12-22T17:31:35.207Z,29.33
2022-12-22T17:34:13.761Z,31.83
2022-12-22T17:36:47.992Z,31.87
2022-12-22T17:39:18.207Z,29.27
2022-12-22T17:41:50.571Z,28.53
2022-12-22T17:44:28.653Z,34.33
2022-12-22T17:47:00.523Z,31.57
2022-12-22T17:49:29.047Z,30.90
2022-12-22T17:52:00.166Z,31.03
2022-12-22T17:54:29.142Z,31.83
2022-12-22T17:57:03.139Z,31.37
2022-12-22T17:59:32.221Z,29.87
2022-12-22T18:02:08.047Z,30.37
2022-12-22T18:04:37.977Z,32.20
2022-12-22T18:07:11.666Z,29.57
2022-12-22T18:09:45.322Z,31.37
2022-12-22T18:12:18.415Z,30.57
2022-12-22T18:14:48.970Z,28.77
2022-12-22T18:17:31.550Z,31.38
2022-12-22T18:20:07.223Z,29.67
2022-12-22T18:22:37.254Z,30.43
2022-12-22T18:25:17.197Z,31.23
2022-12-22T18:27:46.657Z,30.27
2022-12-22T18:30:21.155Z,31.30
2022-12-22T18:32:50.983Z,30.77
2022-12-22T18:35:20.606Z,31.10
2022-12-22T18:37:52.205Z,29.83
2022-12-22T18:40:28.662Z,30.73
2022-12-22T18:43:02.848Z,31.27
2022-12-22T18:45:34.610Z,32.07
2022-12-22T18:48:03.179Z,31.37
2022-12-22T18:50:35.969Z,30.93
2022-12-22T18:53:20.227Z,31.50
2022-12-22T18:55:55.765Z,31.53
2022-12-22T18:58:37.398Z,32.23
2022-12-22T19:01:16.124Z,31.97
2022-12-22T19:03:53.010Z,32.77
2022-12-22T19:06:38.177Z,32.80
2022-12-22T19:09:14.516Z,31.47
2022-12-22T19:11:46.683Z,33.23
2022-12-22T19:14:19.638Z,32.73
2022-12-22T19:16:58.627Z,30.73
2022-12-22T19:19:49.593Z,31.60
2022-12-22T19:22:20.776Z,31.53
2022-12-22T19:24:57.444Z,30.53
2022-12-22T19:27:28.607Z,33.07
2022-12-22T19:30:04.038Z,33.30
2022-12-22T19:32:46.263Z,31.97
2022-12-22T19:35:17.834Z,32.67
2022-12-22T19:37:55.931Z,31.13
2022-12-22T19:40:30.483Z,31.50
2022-12-22T19:43:00.516Z,32.53
2022-12-22T19:45:35.507Z,32.70
2022-12-22T19:48:05.520Z,30.90
2022-12-22T19:50:35.691Z,31.60
2022-12-22T19:53:06.841Z,32.20
2022-12-22T19:55:41.032Z,31.23
2022-12-22T19:58:19.148Z,30.47
2022-12-22T20:00:48.695Z,30.57
2022-12-22T20:03:22.848Z,30.03
2022-12-22T20:05:55.563Z,30.40
2022-12-22T20:08:24.345Z,30.43
2022-12-22T20:13:59.680Z,28.30
2022-12-22T20:16:35.628Z,29.47
2022-12-22T20:19:04.268Z,30.07
2022-12-22T20:21:32.745Z,30.33
2022-12-22T20:24:02.479Z,30.00
2022-12-22T20:26:31.284Z,31.35
2022-12-22T20:29:01.349Z,32.10
2022-12-22T20:31:32.511Z,33.27
2022-12-22T20:34:01.438Z,36.90
2022-12-22T20:36:32.113Z,33.17
2022-12-22T20:39:02.332Z,32.28
2022-12-22T20:41:30.884Z,31.45
2022-12-22T20:44:00.761Z,37.35
2022-12-22T20:46:30.924Z,30.80
2022-12-22T20:49:01.937Z,29.85
2022-12-22T20:51:32.776Z,29.42
2022-12-22T20:54:02.007Z,27.00
2022-12-22T20:56:32.411Z,27.67
2022-12-22T20:59:12.973Z,26.90
2022-12-22T21:01:41.529Z,28.27
2022-12-22T21:04:10.069Z,29.58
2022-12-22T21:06:40.982Z,28.77
2022-12-22T21:09:09.471Z,28.13
2022-12-22T21:11:37.745Z,29.17
2022-12-22T21:14:07.753Z,27.33
2022-12-22T21:16:36.176Z,33.30
2022-12-22T21:19:04.894Z,29.67
2022-12-22T21:21:33.502Z,28.20
2022-12-22T21:24:01.993Z,28.08
2022-12-22T21:26:35.529Z,28.65
2022-12-22T21:29:10.447Z,29.13
2022-12-22T21:31:47.515Z,26.58
2022-12-22T21:34:16.749Z,27.42
2022-12-22T21:36:47.962Z,26.83
2022-12-22T21:39:23.819Z,25.95
2022-12-22T21:42:01.553Z,24.90
2022-12-22T21:44:34.448Z,25.23
2022-12-22T21:47:05.930Z,25.88
2022-12-22T21:49:35.245Z,26.77
2022-12-22T21:52:03.891Z,25.47
2022-12-22T21:54:32.451Z,26.10
2022-12-22T21:57:04.214Z,25.17
2022-12-22T21:59:34.056Z,24.88
2022-12-22T22:02:02.961Z,24.90
2022-12-22T22:04:31.553Z,23.45
2022-12-22T22:07:00.116Z,25.98
2022-12-22T22:09:31.221Z,26.50
2022-12-22T22:12:21.978Z,25.60
2022-12-22T22:14:54.867Z,25.50
2022-12-22T22:17:23.678Z,24.58
2022-12-22T22:19:55.021Z,25.00
2022-12-22T22:25:28.110Z,24.67
2022-12-22T22:28:00.512Z,24.73
2022-12-22T22:30:30.468Z,25.23
2022-12-22T22:32:59.027Z,26.80
2022-12-22T22:35:28.576Z,23.90
2022-12-22T22:41:05.403Z,26.83
2022-12-22T22:55:33.452Z,31.67
2022-12-22T22:58:01.978Z,42.75
2022-12-22T23:00:33.510Z,34.37
2022-12-22T23:03:02.945Z,29.93
2022-12-22T23:05:31.551Z,28.45
2022-12-22T23:08:00.320Z,28.10
2022-12-22T23:10:30.321Z,25.35
2022-12-22T23:13:00.126Z,26.33
2022-12-22T23:15:28.437Z,25.23
2022-12-22T23:17:56.972Z,24.50
2022-12-22T23:20:25.243Z,28.83
2022-12-22T23:22:53.755Z,25.58
2022-12-22T23:25:25.208Z,23.48
2022-12-22T23:27:58.131Z,23.43
2022-12-22T23:30:28.948Z,23.45
2022-12-22T23:32:57.611Z,22.40
2022-12-22T23:35:25.865Z,23.55
2022-12-22T23:37:54.158Z,25.77
2022-12-22T23:40:51.064Z,21.58
2022-12-22T23:43:13.935Z,21.45
2022-12-22T23:45:43.031Z,22.52
2022-12-22T23:48:18.169Z,22.60
2022-12-22T23:50:47.778Z,21.13
2022-12-22T23:53:16.673Z,20.70
2022-12-22T23:55:45.578Z,24.70
2022-12-22T23:58:15.409Z,24.08
